createdAt,value
2017-09-13T00:00:46.969Z,13.74
2017-09-13T00:01:46.305Z,13.76
2017-09-13T00:02:46.295Z,13.87
2017-09-13T00:03:46.924Z,13.88
2017-09-13T00:04:46.914Z,13.89
2017-09-13T00:05:46.905Z,13.79
2017-09-13T00:06:46.563Z,13.83
2017-09-13T00:07:46.221Z,13.8
2017-09-13T00:08:46.531Z,13.87
2017-09-13T00:09:46.842Z,13.79
2017-09-13T00:10:46.830Z,13.81
2017-09-13T00:11:46.488Z,13.81
2017-09-13T00:12:46.474Z,13.81
2017-09-13T00:13:46.462Z,13.79
2017-09-13T00:14:46.120Z,13.81
2017-09-13T00:15:46.433Z,13.79
2017-09-13T00:16:46.742Z,13.77
2017-09-13T00:17:46.724Z,13.89
2017-09-13T00:18:46.388Z,13.79
2017-09-13T00:19:46.376Z,13.83
2017-09-13T00:20:46.362Z,13.81
2017-09-13T00:21:46.343Z,13.8
2017-09-13T00:22:46.368Z,13.81
2017-09-13T00:23:46.316Z,13.84
2017-09-13T00:24:46.307Z,13.84
2017-09-13T00:25:46.289Z,13.84
2017-09-13T00:26:46.271Z,13.87
2017-09-13T00:27:46.261Z,13.83
2017-09-13T00:28:46.599Z,13.94
2017-09-13T00:29:46.547Z,13.87
2017-09-13T00:30:46.213Z,13.88
2017-09-13T00:31:45.885Z,13.89
2017-09-13T00:32:46.187Z,13.8
2017-09-13T00:33:45.850Z,13.83
2017-09-13T00:34:46.160Z,13.83
2017-09-13T00:35:46.469Z,13.8
2017-09-13T00:36:46.136Z,13.77
2017-09-13T00:37:46.437Z,13.88
2017-09-13T00:38:46.112Z,13.84
2017-09-13T00:39:46.091Z,13.83
2017-09-13T00:40:46.075Z,13.84
2017-09-13T00:41:46.061Z,13.81
2017-09-13T00:42:46.087Z,13.87
2017-09-13T00:43:46.040Z,13.87
2017-09-13T00:44:46.357Z,13.92
2017-09-13T00:45:46.353Z,13.87
2017-09-13T00:46:45.985Z,13.88
2017-09-13T00:47:45.988Z,13.98
2017-09-13T00:48:46.287Z,13.92
2017-09-13T00:49:45.950Z,13.96
2017-09-13T00:50:46.268Z,13.92
2017-09-13T00:51:45.910Z,13.95
2017-09-13T00:52:45.912Z,13.94
2017-09-13T00:53:45.888Z,14.02
2017-09-13T00:54:45.868Z,13.92
2017-09-13T00:55:45.862Z,13.99
2017-09-13T00:56:45.838Z,13.92
2017-09-13T00:57:45.509Z,14.04
2017-09-13T00:58:45.818Z,14.09
2017-09-13T00:59:45.798Z,14.04
2017-09-13T01:00:46.116Z,14.07
2017-09-13T01:01:46.099Z,14.02
2017-09-13T01:02:45.759Z,14.07
2017-09-13T01:03:46.066Z,14.06
2017-09-13T01:04:45.407Z,14.02
2017-09-13T01:05:45.714Z,13.99
2017-09-13T01:06:45.704Z,14.06
2017-09-13T01:07:46.008Z,14.06
2017-09-13T01:08:45.672Z,14.06
2017-09-13T01:09:45.657Z,14.12
2017-09-13T01:10:45.647Z,14.07
2017-09-13T01:11:45.306Z,14.12
2017-09-13T01:12:45.613Z,14.17
2017-09-13T01:13:45.602Z,14.04
2017-09-13T01:14:45.910Z,14.1
2017-09-13T01:15:45.570Z,14.09
2017-09-13T01:16:45.565Z,14.07
2017-09-13T01:17:45.539Z,14.13
2017-09-13T01:18:45.211Z,14.14
2017-09-13T01:19:45.521Z,14.06
2017-09-13T01:20:45.186Z,14.09
2017-09-13T01:21:45.490Z,14.16
2017-09-13T01:22:45.476Z,14.19
2017-09-13T01:23:45.462Z,14.13
2017-09-13T01:24:45.129Z,14.25
2017-09-13T01:25:45.759Z,14.21
2017-09-13T01:26:45.417Z,14.14
2017-09-13T01:27:45.408Z,14.27
2017-09-13T01:28:45.398Z,14.25
2017-09-13T01:29:45.433Z,14.27
2017-09-13T01:30:45.363Z,14.28
2017-09-13T01:31:45.346Z,14.31
2017-09-13T01:32:45.333Z,14.32
2017-09-13T01:33:45.320Z,14.2
2017-09-13T01:34:45.629Z,14.28
2017-09-13T01:35:45.612Z,14.21
2017-09-13T01:36:45.276Z,14.29
2017-09-13T01:37:45.581Z,14.32
2017-09-13T01:38:45.456Z,14.29
2017-09-13T01:39:45.560Z,14.35
2017-09-13T01:40:45.545Z,14.34
2017-09-13T01:41:45.533Z,14.35
2017-09-13T01:42:45.198Z,14.37
2017-09-13T01:43:44.863Z,14.42
2017-09-13T01:44:44.852Z,14.35
2017-09-13T01:45:45.475Z,14.38
2017-09-13T01:46:45.144Z,14.43
2017-09-13T01:47:45.456Z,14.44
2017-09-13T01:48:45.116Z,14.42
2017-09-13T01:49:44.783Z,14.44
2017-09-13T01:50:45.088Z,14.46
2017-09-13T01:51:45.391Z,14.44
2017-09-13T01:52:45.055Z,14.52
2017-09-13T01:53:45.364Z,14.46
2017-09-13T01:54:45.353Z,14.43
2017-09-13T01:55:45.020Z,14.43
2017-09-13T01:56:45.007Z,14.5
2017-09-13T01:57:44.986Z,14.53
2017-09-13T01:58:44.966Z,14.52
2017-09-13T01:59:44.963Z,14.49
2017-09-13T02:00:44.942Z,14.44
2017-09-13T02:01:44.611Z,14.49
2017-09-13T02:02:45.233Z,14.52
2017-09-13T02:03:45.274Z,14.47
2017-09-13T02:04:44.568Z,14.47
2017-09-13T02:05:45.197Z,14.5
2017-09-13T02:06:44.863Z,14.5
2017-09-13T02:07:44.843Z,14.5
2017-09-13T02:08:44.838Z,14.38
2017-09-13T02:09:44.819Z,14.44
2017-09-13T02:10:44.804Z,14.37
2017-09-13T02:11:45.107Z,14.29
2017-09-13T02:12:44.774Z,14.24
2017-09-13T02:13:44.758Z,14.07
2017-09-13T02:14:44.749Z,14.12
2017-09-13T02:15:45.087Z,14.02
2017-09-13T02:16:44.735Z,13.99
2017-09-13T02:17:44.705Z,13.89
2017-09-13T02:18:44.371Z,13.8
2017-09-13T02:19:44.674Z,13.73
2017-09-13T02:20:44.661Z,13.61
2017-09-13T02:21:44.973Z,13.32
2017-09-13T02:22:44.962Z,13.17
2017-09-13T02:23:44.628Z,13.11
2017-09-13T02:24:44.601Z,13.14
2017-09-13T02:25:44.914Z,13.03
2017-09-13T02:26:44.575Z,12.99
2017-09-13T02:27:44.561Z,12.93
2017-09-13T02:28:44.542Z,12.89
2017-09-13T02:29:44.869Z,12.88
2017-09-13T02:30:44.518Z,12.84
2017-09-13T02:31:44.502Z,12.85
2017-09-13T02:32:44.164Z,12.74
2017-09-13T02:33:44.476Z,12.78
2017-09-13T02:34:44.457Z,12.84
2017-09-13T02:35:44.764Z,12.81
2017-09-13T02:36:44.425Z,12.79
2017-09-13T02:37:44.732Z,12.75
2017-09-13T02:38:44.073Z,12.71
2017-09-13T02:39:44.412Z,12.78
2017-09-13T02:40:44.686Z,12.77
2017-09-13T02:41:44.355Z,12.74
2017-09-13T02:42:44.360Z,12.78
2017-09-13T02:43:44.322Z,12.7
2017-09-13T02:44:43.993Z,12.67
2017-09-13T02:45:44.613Z,12.67
2017-09-13T02:46:44.282Z,12.67
2017-09-13T02:47:44.295Z,12.63
2017-09-13T02:48:44.264Z,12.67
2017-09-13T02:49:44.557Z,12.63
2017-09-13T02:50:44.222Z,12.69
2017-09-13T02:51:44.201Z,12.66
2017-09-13T02:52:44.202Z,12.59
2017-09-13T02:53:44.500Z,12.69
2017-09-13T02:54:44.180Z,12.7
2017-09-13T02:55:43.831Z,12.67
2017-09-13T02:56:44.138Z,12.67
2017-09-13T02:57:44.457Z,12.63
2017-09-13T02:58:44.424Z,12.56
2017-09-13T02:59:44.405Z,12.48
2017-09-13T03:00:44.067Z,12.54
2017-09-13T03:01:44.051Z,12.49
2017-09-13T03:02:44.039Z,12.46
2017-09-13T03:03:44.344Z,12.52
2017-09-13T03:04:44.345Z,12.51
2017-09-13T03:05:44.310Z,12.52
2017-09-13T03:06:43.653Z,12.56
2017-09-13T03:07:44.283Z,12.44
2017-09-13T03:08:43.949Z,12.44
2017-09-13T03:09:43.935Z,12.52
2017-09-13T03:10:43.916Z,12.56
2017-09-13T03:11:44.223Z,12.38
2017-09-13T03:12:43.565Z,12.52
2017-09-13T03:13:43.883Z,12.49
2017-09-13T03:14:43.860Z,12.49
2017-09-13T03:15:43.851Z,12.46
2017-09-13T03:16:44.149Z,12.49
2017-09-13T03:17:44.139Z,12.48
2017-09-13T03:18:43.792Z,12.48
2017-09-13T03:19:43.464Z,12.49
2017-09-13T03:20:44.080Z,12.45
2017-09-13T03:21:44.067Z,12.41
2017-09-13T03:22:44.059Z,12.56
2017-09-13T03:23:43.715Z,12.56
2017-09-13T03:24:43.384Z,12.49
2017-09-13T03:25:43.684Z,12.49
2017-09-13T03:26:43.671Z,12.49
2017-09-13T03:27:43.656Z,12.49
2017-09-13T03:28:43.319Z,12.54
2017-09-13T03:29:43.638Z,12.52
2017-09-13T03:30:43.936Z,12.39
2017-09-13T03:31:43.664Z,12.51
2017-09-13T03:32:43.579Z,12.45
2017-09-13T03:33:43.564Z,12.49
2017-09-13T03:34:43.550Z,12.54
2017-09-13T03:35:43.855Z,12.48
2017-09-13T03:36:43.847Z,12.39
2017-09-13T03:37:43.499Z,12.52
2017-09-13T03:38:43.521Z,12.38
2017-09-13T03:39:43.698Z,12.48
2017-09-13T03:40:43.461Z,12.52
2017-09-13T03:41:43.117Z,12.49
2017-09-13T03:42:43.748Z,12.45
2017-09-13T03:43:43.733Z,12.46
2017-09-13T03:44:43.401Z,12.46
2017-09-13T03:45:43.701Z,12.46
2017-09-13T03:46:43.363Z,12.42
2017-09-13T03:47:43.022Z,12.45
2017-09-13T03:48:43.335Z,12.44
2017-09-13T03:49:42.995Z,12.42
2017-09-13T03:50:43.626Z,12.48
2017-09-13T03:51:43.615Z,12.46
2017-09-13T03:52:42.961Z,12.46
2017-09-13T03:53:42.938Z,12.54
2017-09-13T03:54:43.247Z,12.41
2017-09-13T03:55:43.232Z,12.49
2017-09-13T03:56:43.214Z,12.45
2017-09-13T03:57:43.192Z,12.46
2017-09-13T03:58:43.183Z,12.39
2017-09-13T03:59:43.172Z,12.37
2017-09-13T04:00:43.467Z,12.45
2017-09-13T04:01:43.126Z,12.41
2017-09-13T04:02:43.113Z,12.48
2017-09-13T04:03:43.104Z,12.42
2017-09-13T04:04:43.082Z,12.52
2017-09-13T04:05:43.076Z,12.44
2017-09-13T04:06:43.376Z,12.39
2017-09-13T04:07:43.046Z,12.51
2017-09-13T04:08:42.701Z,12.49
2017-09-13T04:09:43.008Z,12.48
2017-09-13T04:10:42.991Z,12.48
2017-09-13T04:11:42.974Z,12.45
2017-09-13T04:12:42.961Z,12.42
2017-09-13T04:13:42.944Z,12.48
2017-09-13T04:14:43.249Z,12.45
2017-09-13T04:15:42.918Z,12.49
2017-09-13T04:16:42.578Z,12.48
2017-09-13T04:17:42.560Z,12.49
2017-09-13T04:18:42.868Z,12.33
2017-09-13T04:19:42.858Z,12.48
2017-09-13T04:20:42.521Z,12.44
2017-09-13T04:21:42.818Z,12.52
2017-09-13T04:22:42.483Z,12.48
2017-09-13T04:23:42.791Z,12.45
2017-09-13T04:24:42.771Z,12.49
2017-09-13T04:25:42.755Z,12.49
2017-09-13T04:26:42.745Z,12.48
2017-09-13T04:27:43.048Z,12.45
2017-09-13T04:28:42.404Z,12.48
2017-09-13T04:29:43.015Z,12.57
2017-09-13T04:30:42.681Z,12.42
2017-09-13T04:31:42.664Z,12.51
2017-09-13T04:32:42.326Z,12.54
2017-09-13T04:33:42.636Z,12.41
2017-09-13T04:34:42.616Z,12.37
2017-09-13T04:35:42.924Z,12.49
2017-09-13T04:36:42.583Z,12.54
2017-09-13T04:37:42.576Z,12.49
2017-09-13T04:38:42.554Z,12.51
2017-09-13T04:39:42.539Z,12.48
2017-09-13T04:40:42.844Z,12.52
2017-09-13T04:41:42.824Z,12.51
2017-09-13T04:42:42.507Z,12.38
2017-09-13T04:43:42.800Z,12.46
2017-09-13T04:44:42.784Z,12.46
2017-09-13T04:45:42.785Z,12.48
2017-09-13T04:46:42.430Z,12.41
2017-09-13T04:47:42.419Z,12.54
2017-09-13T04:48:42.723Z,12.46
2017-09-13T04:49:42.383Z,12.48
2017-09-13T04:50:42.695Z,12.42
2017-09-13T04:51:42.032Z,12.48
2017-09-13T04:52:42.659Z,12.42
2017-09-13T04:53:42.348Z,12.44
2017-09-13T04:54:41.989Z,12.56
2017-09-13T04:55:42.304Z,12.54
2017-09-13T04:56:42.279Z,12.54
2017-09-13T04:57:41.944Z,12.57
2017-09-13T04:58:42.245Z,12.49
2017-09-13T04:59:42.226Z,12.52
2017-09-13T05:00:42.541Z,12.51
2017-09-13T05:01:41.877Z,12.57
2017-09-13T05:02:42.181Z,12.51
2017-09-13T05:03:42.160Z,12.6
2017-09-13T05:04:41.825Z,12.63
2017-09-13T05:05:42.452Z,12.52
2017-09-13T05:06:42.115Z,12.59
2017-09-13T05:07:42.101Z,12.62
2017-09-13T05:08:42.408Z,12.6
2017-09-13T05:09:42.397Z,12.6
2017-09-13T05:10:41.741Z,12.63
2017-09-13T05:11:42.037Z,12.63
2017-09-13T05:12:42.025Z,12.66
2017-09-13T05:13:42.008Z,12.56
2017-09-13T05:14:41.990Z,12.64
2017-09-13T05:15:41.655Z,12.57
2017-09-13T05:16:41.957Z,12.69
2017-09-13T05:17:41.624Z,12.66
2017-09-13T05:18:42.247Z,12.69
2017-09-13T05:19:41.910Z,12.69
2017-09-13T05:20:41.902Z,12.64
2017-09-13T05:21:41.885Z,12.64
2017-09-13T05:22:41.867Z,12.69
2017-09-13T05:23:41.848Z,12.67
2017-09-13T05:24:41.838Z,12.64
2017-09-13T05:25:41.823Z,12.64
2017-09-13T05:26:41.809Z,12.69
2017-09-13T05:27:41.785Z,12.63
2017-09-13T05:28:41.773Z,12.74
2017-09-13T05:29:41.436Z,12.71
2017-09-13T05:30:41.422Z,12.69
2017-09-13T05:31:41.724Z,12.7
2017-09-13T05:32:41.723Z,12.71
2017-09-13T05:33:41.379Z,12.77
2017-09-13T05:34:41.681Z,12.74
2017-09-13T05:35:41.340Z,12.81
2017-09-13T05:36:41.676Z,12.74
2017-09-13T05:37:41.312Z,12.74
2017-09-13T05:38:41.293Z,12.74
2017-09-13T05:39:41.479Z,12.71
2017-09-13T05:40:41.268Z,12.77
2017-09-13T05:41:41.569Z,12.75
2017-09-13T05:42:41.559Z,12.82
2017-09-13T05:43:41.553Z,12.78
2017-09-13T05:44:41.216Z,12.79
2017-09-13T05:45:41.203Z,12.85
2017-09-13T05:46:41.827Z,12.92
2017-09-13T05:47:41.162Z,12.82
2017-09-13T05:48:41.467Z,12.89
2017-09-13T05:49:41.447Z,12.87
2017-09-13T05:50:41.759Z,12.93
2017-09-13T05:51:41.766Z,12.93
2017-09-13T05:52:41.734Z,12.95
2017-09-13T05:53:41.713Z,12.93
2017-09-13T05:54:41.374Z,12.92
2017-09-13T05:55:41.045Z,12.97
2017-09-13T05:56:41.023Z,12.99
2017-09-13T05:57:41.647Z,13.06
2017-09-13T05:58:40.986Z,12.99
2017-09-13T05:59:41.295Z,12.97
2017-09-13T06:00:40.963Z,13.02
2017-09-13T06:01:40.944Z,13.03
2017-09-13T06:02:41.246Z,13.03
2017-09-13T06:03:41.241Z,13.09
2017-09-13T06:04:41.219Z,13.11
2017-09-13T06:05:41.530Z,13.06
2017-09-13T06:06:41.510Z,13.09
2017-09-13T06:07:41.179Z,13.11
2017-09-13T06:08:41.164Z,13.04
2017-09-13T06:09:40.821Z,13.04
2017-09-13T06:10:41.127Z,13.09
2017-09-13T06:11:40.789Z,13.2
2017-09-13T06:12:41.102Z,13.21
2017-09-13T06:13:41.087Z,13.22
2017-09-13T06:14:40.746Z,13.09
2017-09-13T06:15:41.050Z,13.21
2017-09-13T06:16:41.032Z,13.14
2017-09-13T06:17:40.696Z,13.11
2017-09-13T06:18:41.005Z,13.09
2017-09-13T06:19:40.991Z,13.17
2017-09-13T06:20:41.289Z,13.11
2017-09-13T06:21:41.285Z,13.21
2017-09-13T06:22:40.630Z,13.21
2017-09-13T06:23:40.988Z,13.21
2017-09-13T06:24:40.919Z,13.22
2017-09-13T06:25:41.230Z,13.21
2017-09-13T06:26:40.882Z,13.18
2017-09-13T06:27:40.888Z,13.24
2017-09-13T06:28:41.373Z,13.25
2017-09-13T06:29:40.838Z,13.25
2017-09-13T06:30:40.822Z,13.3
2017-09-13T06:31:40.803Z,13.3
2017-09-13T06:32:40.478Z,13.36
2017-09-13T06:33:40.776Z,13.33
2017-09-13T06:34:41.079Z,13.43
2017-09-13T06:35:40.746Z,13.46
2017-09-13T06:36:41.067Z,13.44
2017-09-13T06:37:40.712Z,13.4
2017-09-13T06:38:40.697Z,13.41
2017-09-13T06:39:41.007Z,13.46
2017-09-13T06:40:41.000Z,13.55
2017-09-13T06:41:40.668Z,13.46
2017-09-13T06:42:40.637Z,13.54
2017-09-13T06:43:40.307Z,13.58
2017-09-13T06:44:40.933Z,13.59
2017-09-13T06:45:40.921Z,13.65
2017-09-13T06:46:40.584Z,13.73
2017-09-13T06:47:40.563Z,13.71
2017-09-13T06:48:40.550Z,13.84
2017-09-13T06:49:40.853Z,13.77
2017-09-13T06:50:40.518Z,13.81
2017-09-13T06:51:40.826Z,13.79
2017-09-13T06:52:40.489Z,13.79
2017-09-13T06:53:40.163Z,13.88
2017-09-13T06:54:40.778Z,13.91
2017-09-13T06:55:40.448Z,13.95
2017-09-13T06:56:40.430Z,14.01
2017-09-13T06:57:40.746Z,14.09
2017-09-13T06:58:40.406Z,14.09
2017-09-13T06:59:40.719Z,14.04
2017-09-13T07:00:40.697Z,14.14
2017-09-13T07:01:40.682Z,14.1
2017-09-13T07:02:40.348Z,14.29
2017-09-13T07:03:40.335Z,14.28
2017-09-13T07:04:40.317Z,14.31
2017-09-13T07:05:40.302Z,14.37
2017-09-13T07:06:40.613Z,14.35
2017-09-13T07:07:40.273Z,14.37
2017-09-13T07:08:40.261Z,14.38
2017-09-13T07:09:40.565Z,14.44
2017-09-13T07:10:40.233Z,14.49
2017-09-13T07:11:40.223Z,14.5
2017-09-13T07:12:39.887Z,14.49
2017-09-13T07:13:40.199Z,14.46
2017-09-13T07:14:40.176Z,14.52
2017-09-13T07:15:40.160Z,14.67
2017-09-13T07:16:40.473Z,14.65
2017-09-13T07:17:39.816Z,14.64
2017-09-13T07:18:40.444Z,14.69
2017-09-13T07:19:40.133Z,14.69
2017-09-13T07:20:40.421Z,14.74
2017-09-13T07:21:40.105Z,14.75
2017-09-13T07:22:39.748Z,14.83
2017-09-13T07:23:40.073Z,14.91
2017-09-13T07:24:40.037Z,14.95
2017-09-13T07:25:39.706Z,14.94
2017-09-13T07:26:39.690Z,14.99
2017-09-13T07:27:40.319Z,15.09
2017-09-13T07:28:40.308Z,15.11
2017-09-13T07:29:40.089Z,15.2
2017-09-13T07:30:39.634Z,15.2
2017-09-13T07:31:40.575Z,15.3
2017-09-13T07:32:40.247Z,15.28
2017-09-13T07:33:39.910Z,15.36
2017-09-13T07:34:40.218Z,15.35
2017-09-13T07:35:39.575Z,15.38
2017-09-13T07:36:39.558Z,15.39
2017-09-13T07:37:39.917Z,15.36
2017-09-13T07:38:39.851Z,15.48
2017-09-13T07:39:40.039Z,15.51
2017-09-13T07:40:39.500Z,15.6
2017-09-13T07:41:39.483Z,15.59
2017-09-13T07:42:39.824Z,15.61
2017-09-13T07:43:40.109Z,15.63
2017-09-13T07:44:39.803Z,15.74
2017-09-13T07:45:40.099Z,15.93
2017-09-13T07:46:39.420Z,15.92
2017-09-13T07:47:40.051Z,16.07
2017-09-13T07:48:39.395Z,16.11
2017-09-13T07:49:39.703Z,16.2
2017-09-13T07:50:39.687Z,16.27
2017-09-13T07:51:39.358Z,16.3
2017-09-13T07:52:39.664Z,16.37
2017-09-13T07:53:40.148Z,16.33
2017-09-13T07:54:39.962Z,16.38
2017-09-13T07:55:39.997Z,16.3
2017-09-13T07:56:39.955Z,16.4
2017-09-13T07:57:39.935Z,16.34
2017-09-13T07:58:39.605Z,16.35
2017-09-13T07:59:39.905Z,16.45
2017-09-13T08:00:39.239Z,16.45
2017-09-13T08:01:39.584Z,16.5
2017-09-13T08:02:39.537Z,16.6
2017-09-13T08:03:39.851Z,16.68
2017-09-13T08:04:39.524Z,16.73
2017-09-13T08:05:39.507Z,16.73
2017-09-13T08:06:39.810Z,16.71
2017-09-13T08:07:39.476Z,16.73
2017-09-13T08:08:39.784Z,16.71
2017-09-13T08:09:39.451Z,16.71
2017-09-13T08:10:39.771Z,16.68
2017-09-13T08:11:39.423Z,16.7
2017-09-13T08:12:39.419Z,16.67
2017-09-13T08:13:39.404Z,16.78
2017-09-13T08:14:39.717Z,16.83
2017-09-13T08:15:39.058Z,16.86
2017-09-13T08:16:39.699Z,16.85
2017-09-13T08:17:39.354Z,16.96
2017-09-13T08:18:39.667Z,16.98
2017-09-13T08:19:39.656Z,16.92
2017-09-13T08:20:39.323Z,16.89
2017-09-13T08:21:39.316Z,16.88
2017-09-13T08:22:39.616Z,16.92
2017-09-13T08:23:39.286Z,16.93
2017-09-13T08:24:39.283Z,16.9
2017-09-13T08:25:39.577Z,16.9
2017-09-13T08:26:38.928Z,16.96
2017-09-13T08:27:38.914Z,17.03
2017-09-13T08:28:39.224Z,17.07
2017-09-13T08:29:39.206Z,17.15
2017-09-13T08:30:39.198Z,17.17
2017-09-13T08:31:38.863Z,17.23
2017-09-13T08:32:39.179Z,17.23
2017-09-13T08:33:38.842Z,17.41
2017-09-13T08:34:39.145Z,17.3
2017-09-13T08:35:39.140Z,17.3
2017-09-13T08:36:39.449Z,17.33
2017-09-13T08:37:39.114Z,17.32
2017-09-13T08:38:39.098Z,17.28
2017-09-13T08:39:39.098Z,17.38
2017-09-13T08:40:39.081Z,17.36
2017-09-13T08:41:39.072Z,17.46
2017-09-13T08:42:39.374Z,17.41
2017-09-13T08:43:39.055Z,17.43
2017-09-13T08:44:39.030Z,17.48
2017-09-13T08:45:39.026Z,17.54
2017-09-13T08:46:39.349Z,17.55
2017-09-13T08:47:39.001Z,17.66
2017-09-13T08:48:39.345Z,17.62
2017-09-13T08:49:39.300Z,17.78
2017-09-13T08:50:39.290Z,17.76
2017-09-13T08:51:39.301Z,17.74
2017-09-13T08:52:38.629Z,17.7
2017-09-13T08:53:39.276Z,17.7
2017-09-13T08:54:38.927Z,17.73
2017-09-13T08:55:38.582Z,17.76
2017-09-13T08:56:38.890Z,17.78
2017-09-13T08:57:39.222Z,17.81
2017-09-13T08:58:38.548Z,17.7
2017-09-13T08:59:38.875Z,17.78
2017-09-13T09:00:39.167Z,17.71
2017-09-13T09:01:39.160Z,17.76
2017-09-13T09:02:39.141Z,17.82
2017-09-13T09:03:39.142Z,17.88
2017-09-13T09:04:38.815Z,17.81
2017-09-13T09:05:38.475Z,17.84
2017-09-13T09:06:53.928Z,17.89
2017-09-13T09:07:39.389Z,17.92
2017-09-13T09:08:39.307Z,18.02
2017-09-13T09:09:38.741Z,18.09
2017-09-13T09:10:39.054Z,18.07
2017-09-13T09:11:39.095Z,18.1
2017-09-13T09:12:38.681Z,18.12
2017-09-13T09:13:38.708Z,18.06
2017-09-13T09:14:53.582Z,18.13
2017-09-13T09:15:38.674Z,18.15
2017-09-13T09:16:38.864Z,18.19
2017-09-13T09:17:38.650Z,18.22
2017-09-13T09:18:38.335Z,18.36
2017-09-13T09:19:38.627Z,18.37
2017-09-13T09:20:38.628Z,18.31
2017-09-13T09:21:38.926Z,18.22
2017-09-13T09:22:38.919Z,18.33
2017-09-13T09:23:38.268Z,18.36
2017-09-13T09:24:38.575Z,18.39
2017-09-13T09:25:38.568Z,18.4
2017-09-13T09:26:38.867Z,18.4
2017-09-13T09:27:38.859Z,18.46
2017-09-13T09:28:38.529Z,18.47
2017-09-13T09:29:38.202Z,18.47
2017-09-13T09:30:38.212Z,18.57
2017-09-13T09:31:38.495Z,18.58
2017-09-13T09:32:38.539Z,18.46
2017-09-13T09:33:38.150Z,18.34
2017-09-13T09:34:38.464Z,18.22
2017-09-13T09:35:38.131Z,18.28
2017-09-13T09:36:38.115Z,18.13
2017-09-13T09:37:38.443Z,18.09
2017-09-13T09:38:38.422Z,18.17
2017-09-13T09:39:38.930Z,18.1
2017-09-13T09:40:38.402Z,17.94
2017-09-13T09:41:38.719Z,18.03
2017-09-13T09:42:38.574Z,18.07
2017-09-13T09:43:38.360Z,18.1
2017-09-13T09:44:38.030Z,18.07
2017-09-13T09:45:38.357Z,18.19
2017-09-13T09:46:38.006Z,18.25
2017-09-13T09:47:38.319Z,18.29
2017-09-13T09:48:38.635Z,18.39
2017-09-13T09:49:38.617Z,18.36
2017-09-13T09:50:38.607Z,18.36
2017-09-13T09:51:38.589Z,18.25
2017-09-13T09:52:38.585Z,18.22
2017-09-13T09:53:38.250Z,18.31
2017-09-13T09:54:38.566Z,18.15
2017-09-13T09:55:38.550Z,18.18
2017-09-13T09:56:38.542Z,17.89
2017-09-13T09:57:38.528Z,17.7
2017-09-13T09:58:37.880Z,17.43
2017-09-13T09:59:38.191Z,17.44
2017-09-13T10:00:38.170Z,17.36
2017-09-13T10:01:38.163Z,17.26
2017-09-13T10:02:37.837Z,17.13
2017-09-13T10:03:38.143Z,16.85
2017-09-13T10:04:38.467Z,16.85
2017-09-13T10:05:38.134Z,16.68
2017-09-13T10:06:37.789Z,16.74
2017-09-13T10:07:38.422Z,16.7
2017-09-13T10:08:38.091Z,16.74
2017-09-13T10:09:38.399Z,16.7
2017-09-13T10:10:37.748Z,16.75
2017-09-13T10:11:38.057Z,16.67
2017-09-13T10:12:38.046Z,16.63
2017-09-13T10:13:38.033Z,16.5
2017-09-13T10:14:37.707Z,16.42
2017-09-13T10:15:38.007Z,16.34
2017-09-13T10:16:38.320Z,16.3
2017-09-13T10:17:37.673Z,16.27
2017-09-13T10:18:37.977Z,16.27
2017-09-13T10:19:37.644Z,16.3
2017-09-13T10:20:37.954Z,16.35
2017-09-13T10:21:38.266Z,16.5
2017-09-13T10:22:38.257Z,16.6
2017-09-13T10:23:38.240Z,16.7
2017-09-13T10:24:37.908Z,16.75
2017-09-13T10:25:38.220Z,16.85
2017-09-13T10:26:37.897Z,16.74
2017-09-13T10:27:37.882Z,16.93
2017-09-13T10:28:37.544Z,17.04
2017-09-13T10:29:37.849Z,17.08
2017-09-13T10:30:37.840Z,17.17
2017-09-13T10:31:37.829Z,17.25
2017-09-13T10:32:37.855Z,17.3
2017-09-13T10:33:37.803Z,17.38
2017-09-13T10:34:37.465Z,17.54
2017-09-13T10:35:37.457Z,17.57
2017-09-13T10:36:37.446Z,17.79
2017-09-13T10:37:37.451Z,18.02
2017-09-13T10:38:37.751Z,17.95
2017-09-13T10:39:37.767Z,17.91
2017-09-13T10:40:38.044Z,18.02
2017-09-13T10:41:37.723Z,18.1
2017-09-13T10:42:37.703Z,18.24
2017-09-13T10:43:38.044Z,18.28
2017-09-13T10:44:38.003Z,18.44
2017-09-13T10:45:37.699Z,18.52
2017-09-13T10:46:37.657Z,18.67
2017-09-13T10:47:37.671Z,18.57
2017-09-13T10:48:37.633Z,18.72
2017-09-13T10:49:37.311Z,18.65
2017-09-13T10:50:37.629Z,18.64
2017-09-13T10:51:37.934Z,18.8
2017-09-13T10:52:37.918Z,18.8
2017-09-13T10:53:37.589Z,18.79
2017-09-13T10:54:37.906Z,18.84
2017-09-13T10:55:37.571Z,18.8
2017-09-13T10:56:37.241Z,18.8
2017-09-13T10:57:37.546Z,18.8
2017-09-13T10:58:37.856Z,18.91
2017-09-13T10:59:37.843Z,18.91
2017-09-13T11:00:37.513Z,18.94
2017-09-13T11:01:37.515Z,18.99
2017-09-13T11:02:37.507Z,19.1
2017-09-13T11:03:37.823Z,19.11
2017-09-13T11:04:37.158Z,19.28
2017-09-13T11:05:37.798Z,19.31
2017-09-13T11:06:37.799Z,19.32
2017-09-13T11:07:37.453Z,19.4
2017-09-13T11:08:37.445Z,19.42
2017-09-13T11:09:37.439Z,19.54
2017-09-13T11:10:37.752Z,19.47
2017-09-13T11:11:37.430Z,19.42
2017-09-13T11:12:37.421Z,19.68
2017-09-13T11:13:37.405Z,19.6
2017-09-13T11:14:37.403Z,19.69
2017-09-13T11:15:37.395Z,19.8
2017-09-13T11:16:37.401Z,19.78
2017-09-13T11:17:37.718Z,19.94
2017-09-13T11:18:37.700Z,19.9
2017-09-13T11:19:37.372Z,20.13
2017-09-13T11:20:37.047Z,19.98
2017-09-13T11:21:37.364Z,19.8
2017-09-13T11:22:37.679Z,19.58
2017-09-13T11:23:37.672Z,19.39
2017-09-13T11:24:37.664Z,19.29
2017-09-13T11:25:37.339Z,19.38
2017-09-13T11:26:37.331Z,19.48
2017-09-13T11:27:37.322Z,19.38
2017-09-13T11:28:37.641Z,19.29
2017-09-13T11:29:37.640Z,19.23
2017-09-13T11:30:37.309Z,19.35
2017-09-13T11:31:36.975Z,19.72
2017-09-13T11:32:36.970Z,20.08
2017-09-13T11:33:37.284Z,20.43
2017-09-13T11:34:37.611Z,20.61
2017-09-13T11:35:37.266Z,20.8
2017-09-13T11:36:36.944Z,20.9
2017-09-13T11:37:37.584Z,20.81
2017-09-13T11:38:37.253Z,20.79
2017-09-13T11:39:37.451Z,20.89
2017-09-13T11:40:37.243Z,20.95
2017-09-13T11:41:37.246Z,20.91
2017-09-13T11:42:37.553Z,21.29
2017-09-13T11:43:37.236Z,21.39
2017-09-13T11:44:37.544Z,21.51
2017-09-13T11:45:37.225Z,21.59
2017-09-13T11:46:37.219Z,21.6
2017-09-13T11:47:37.217Z,21.54
2017-09-13T11:48:37.540Z,21.26
2017-09-13T11:49:37.212Z,21.44
2017-09-13T11:50:37.207Z,21.26
2017-09-13T11:51:36.886Z,21.09
2017-09-13T11:52:37.525Z,20.95
2017-09-13T11:53:36.876Z,21.06
2017-09-13T11:54:37.203Z,21.24
2017-09-13T11:55:37.524Z,20.98
2017-09-13T11:56:37.517Z,20.83
2017-09-13T11:57:37.515Z,20.42
2017-09-13T11:58:37.509Z,20.46
2017-09-13T11:59:37.194Z,20.62
2017-09-13T12:00:36.857Z,20.86
2017-09-13T12:01:37.182Z,21.01
2017-09-13T12:02:37.499Z,21.29
2017-09-13T12:03:36.844Z,21.64
2017-09-13T12:04:37.502Z,21.5
2017-09-13T12:05:37.165Z,21.24
2017-09-13T12:06:36.841Z,21.11
2017-09-13T12:07:37.157Z,21.24
2017-09-13T12:08:36.831Z,20.83
2017-09-13T12:09:37.156Z,21.3
2017-09-13T12:10:37.468Z,21.44
2017-09-13T12:11:36.824Z,21.61
2017-09-13T12:12:37.141Z,22.01
2017-09-13T12:13:37.135Z,21.98
2017-09-13T12:14:37.456Z,22.07
2017-09-13T12:15:37.137Z,22.32
2017-09-13T12:16:37.136Z,22.47
2017-09-13T12:17:36.812Z,22.37
2017-09-13T12:18:37.126Z,22.47
2017-09-13T12:19:37.123Z,22.71
2017-09-13T12:20:37.125Z,22.84
2017-09-13T12:21:37.119Z,22.84
2017-09-13T12:22:37.443Z,22.84
2017-09-13T12:23:37.475Z,22.84
2017-09-13T12:24:37.130Z,22.83
2017-09-13T12:25:37.440Z,22.54
2017-09-13T12:26:36.795Z,22.52
2017-09-13T12:27:37.116Z,22.46
2017-09-13T12:28:37.117Z,22.46
2017-09-13T12:29:37.450Z,22.31
2017-09-13T12:30:36.796Z,22.41
2017-09-13T12:31:37.456Z,22.5
2017-09-13T12:32:37.113Z,22.75
2017-09-13T12:33:37.115Z,22.84
2017-09-13T12:34:36.798Z,22.97
2017-09-13T12:35:36.797Z,22.99
2017-09-13T12:36:36.793Z,22.46
2017-09-13T12:37:36.808Z,21.92
2017-09-13T12:38:37.441Z,22.46
2017-09-13T12:39:36.799Z,22.02
2017-09-13T12:40:37.120Z,21.71
2017-09-13T12:41:37.125Z,21.38
2017-09-13T12:42:37.439Z,20.99
2017-09-13T12:43:37.120Z,20.8
2017-09-13T12:44:37.113Z,20.27
2017-09-13T12:45:37.114Z,20.1
2017-09-13T12:46:36.791Z,19.76
2017-09-13T12:47:37.128Z,19.73
2017-09-13T12:48:36.781Z,20.12
2017-09-13T12:49:37.106Z,20.68
2017-09-13T12:50:37.098Z,21.29
2017-09-13T12:51:37.088Z,21.57
2017-09-13T12:52:36.772Z,21.69
2017-09-13T12:53:36.765Z,21.97
2017-09-13T12:54:37.081Z,22.16
2017-09-13T12:55:37.083Z,22.09